sensor_id;sensor_type;location;lat;lon;timestamp;P1;durP1;ratioP1;P2;durP2;ratioP2
261;SDS011;114;48.260;10.988;2023-02-28T00:00:28;1.73;;;1.63;;
261;SDS011;114;48.260;10.988;2023-02-28T00:02:53;5.43;;;2.40;;
261;SDS011;114;48.260;10.988;2023-02-28T00:05:20;4.93;;;1.80;;
261;SDS011;114;48.260;10.988;2023-02-28T00:07:47;1.80;;;1.70;;
261;SDS011;114;48.260;10.988;2023-02-28T00:10:14;1.83;;;1.73;;
261;SDS011;114;48.260;10.988;2023-02-28T00:12:49;2.17;;;1.70;;
261;SDS011;114;48.260;10.988;2023-02-28T00:15:15;1.80;;;1.70;;
261;SDS011;114;48.260;10.988;2023-02-28T00:17:41;2.93;;;2.70;;
261;SDS011;114;48.260;10.988;2023-02-28T00:20:08;1.90;;;1.73;;
261;SDS011;114;48.260;10.988;2023-02-28T00:22:35;1.60;;;1.50;;
261;SDS011;114;48.260;10.988;2023-02-28T00:25:03;1.60;;;1.50;;
261;SDS011;114;48.260;10.988;2023-02-28T00:27:29;1.47;;;1.37;;
261;SDS011;114;48.260;10.988;2023-02-28T00:29:55;2.03;;;1.80;;
261;SDS011;114;48.260;10.988;2023-02-28T00:32:21;2.00;;;1.83;;
261;SDS011;114;48.260;10.988;2023-02-28T00:34:47;1.93;;;1.73;;
261;SDS011;114;48.260;10.988;2023-02-28T00:37:12;2.53;;;2.33;;
261;SDS011;114;48.260;10.988;2023-02-28T00:39:38;2.07;;;1.93;;
261;SDS011;114;48.260;10.988;2023-02-28T00:42:05;2.80;;;1.93;;
261;SDS011;114;48.260;10.988;2023-02-28T00:44:32;2.70;;;2.50;;
261;SDS011;114;48.260;10.988;2023-02-28T00:46:58;3.33;;;2.23;;
261;SDS011;114;48.260;10.988;2023-02-28T00:49:24;2.43;;;2.33;;
261;SDS011;114;48.260;10.988;2023-02-28T00:51:51;2.33;;;2.13;;
261;SDS011;114;48.260;10.988;2023-02-28T00:54:18;3.57;;;2.60;;
261;SDS011;114;48.260;10.988;2023-02-28T00:56:44;2.33;;;2.23;;
261;SDS011;114;48.260;10.988;2023-02-28T00:59:11;3.03;;;2.00;;
261;SDS011;114;48.260;10.988;2023-02-28T01:01:41;2.30;;;2.10;;
261;SDS011;114;48.260;10.988;2023-02-28T01:04:08;2.30;;;2.17;;
261;SDS011;114;48.260;10.988;2023-02-28T01:06:33;2.53;;;2.00;;
261;SDS011;114;48.260;10.988;2023-02-28T01:08:59;7.90;;;2.63;;
261;SDS011;114;48.260;10.988;2023-02-28T01:11:25;2.70;;;2.40;;
261;SDS011;114;48.260;10.988;2023-02-28T01:13:51;4.50;;;1.97;;
261;SDS011;114;48.260;10.988;2023-02-28T01:16:17;2.67;;;1.80;;
261;SDS011;114;48.260;10.988;2023-02-28T01:18:43;2.07;;;1.97;;
261;SDS011;114;48.260;10.988;2023-02-28T01:21:13;2.27;;;2.10;;
261;SDS011;114;48.260;10.988;2023-02-28T01:23:41;1.73;;;1.63;;
261;SDS011;114;48.260;10.988;2023-02-28T01:26:07;2.40;;;2.27;;
261;SDS011;114;48.260;10.988;2023-02-28T01:28:36;6.10;;;2.33;;
261;SDS011;114;48.260;10.988;2023-02-28T01:31:01;2.43;;;2.23;;
261;SDS011;114;48.260;10.988;2023-02-28T01:33:27;5.23;;;2.10;;
261;SDS011;114;48.260;10.988;2023-02-28T01:36:00;2.40;;;2.20;;
261;SDS011;114;48.260;10.988;2023-02-28T01:38:27;2.57;;;2.40;;
261;SDS011;114;48.260;10.988;2023-02-28T01:40:53;2.10;;;1.90;;
261;SDS011;114;48.260;10.988;2023-02-28T01:45:55;2.50;;;2.30;;
261;SDS011;114;48.260;10.988;2023-02-28T01:48:26;1.83;;;1.73;;
261;SDS011;114;48.260;10.988;2023-02-28T01:50:56;2.43;;;2.23;;
261;SDS011;114;48.260;10.988;2023-02-28T01:53:29;2.37;;;2.20;;
261;SDS011;114;48.260;10.988;2023-02-28T01:55:59;2.17;;;2.07;;
261;SDS011;114;48.260;10.988;2023-02-28T01:58:25;3.00;;;2.27;;
261;SDS011;114;48.260;10.988;2023-02-28T02:00:51;3.07;;;2.23;;
261;SDS011;114;48.260;10.988;2023-02-28T02:03:17;5.40;;;2.40;;
261;SDS011;114;48.260;10.988;2023-02-28T02:05:44;2.80;;;2.03;;
261;SDS011;114;48.260;10.988;2023-02-28T02:08:13;3.00;;;2.70;;
261;SDS011;114;48.260;10.988;2023-02-28T02:10:44;2.00;;;1.90;;
261;SDS011;114;48.260;10.988;2023-02-28T02:16:52;2.43;;;2.23;;
261;SDS011;114;48.260;10.988;2023-02-28T02:18:54;2.80;;;2.60;;
261;SDS011;114;48.260;10.988;2023-02-28T02:40:57;2.67;;;2.47;;
261;SDS011;114;48.260;10.988;2023-02-28T02:43:44;2.73;;;2.20;;
261;SDS011;114;48.260;10.988;2023-02-28T02:49:12;3.07;;;2.80;;
261;SDS011;114;48.260;10.988;2023-02-28T02:51:51;2.80;;;2.70;;
261;SDS011;114;48.260;10.988;2023-02-28T02:54:27;7.73;;;2.50;;
261;SDS011;114;48.260;10.988;2023-02-28T02:56:59;2.73;;;2.53;;
261;SDS011;114;48.260;10.988;2023-02-28T02:59:28;2.80;;;2.60;;
261;SDS011;114;48.260;10.988;2023-02-28T03:01:56;3.40;;;3.10;;
261;SDS011;114;48.260;10.988;2023-02-28T03:04:26;3.63;;;2.50;;
261;SDS011;114;48.260;10.988;2023-02-28T03:06:57;4.60;;;3.00;;
261;SDS011;114;48.260;10.988;2023-02-28T03:09:24;3.63;;;3.30;;
261;SDS011;114;48.260;10.988;2023-02-28T03:11:51;3.43;;;3.13;;
261;SDS011;114;48.260;10.988;2023-02-28T03:17:24;3.70;;;3.40;;
261;SDS011;114;48.260;10.988;2023-02-28T03:25:12;6.50;;;4.20;;
261;SDS011;114;48.260;10.988;2023-02-28T03:27:46;3.10;;;3.00;;
261;SDS011;114;48.260;10.988;2023-02-28T03:33:14;4.17;;;3.17;;
261;SDS011;114;48.260;10.988;2023-02-28T03:35:52;5.70;;;3.80;;
261;SDS011;114;48.260;10.988;2023-02-28T03:41:05;3.60;;;3.37;;
261;SDS011;114;48.260;10.988;2023-02-28T03:43:38;4.10;;;3.70;;
261;SDS011;114;48.260;10.988;2023-02-28T03:46:08;4.50;;;3.10;;
261;SDS011;114;48.260;10.988;2023-02-28T03:48:47;5.43;;;3.83;;
261;SDS011;114;48.260;10.988;2023-02-28T03:51:21;4.80;;;3.70;;
261;SDS011;114;48.260;10.988;2023-02-28T03:53:52;4.30;;;3.90;;
261;SDS011;114;48.260;10.988;2023-02-28T03:56:22;4.10;;;3.67;;
261;SDS011;114;48.260;10.988;2023-02-28T03:59:06;4.00;;;3.40;;
261;SDS011;114;48.260;10.988;2023-02-28T04:01:40;4.43;;;4.07;;
261;SDS011;114;48.260;10.988;2023-02-28T04:04:09;3.87;;;3.53;;
261;SDS011;114;48.260;10.988;2023-02-28T04:06:35;4.43;;;4.13;;
261;SDS011;114;48.260;10.988;2023-02-28T04:09:02;4.80;;;4.27;;
261;SDS011;114;48.260;10.988;2023-02-28T04:14:00;5.87;;;4.87;;
261;SDS011;114;48.260;10.988;2023-02-28T04:16:27;4.60;;;4.30;;
261;SDS011;114;48.260;10.988;2023-02-28T04:18:54;5.43;;;4.43;;
261;SDS011;114;48.260;10.988;2023-02-28T04:21:27;5.63;;;4.77;;
261;SDS011;114;48.260;10.988;2023-02-28T04:23:54;5.23;;;4.73;;
261;SDS011;114;48.260;10.988;2023-02-28T04:26:20;5.27;;;4.77;;
261;SDS011;114;48.260;10.988;2023-02-28T04:28:46;4.20;;;3.90;;
261;SDS011;114;48.260;10.988;2023-02-28T04:31:11;6.83;;;4.77;;
261;SDS011;114;48.260;10.988;2023-02-28T04:33:37;5.70;;;4.63;;
261;SDS011;114;48.260;10.988;2023-02-28T04:36:04;6.20;;;4.47;;
261;SDS011;114;48.260;10.988;2023-02-28T04:38:33;5.40;;;4.43;;
261;SDS011;114;48.260;10.988;2023-02-28T04:41:01;7.70;;;6.13;;
261;SDS011;114;48.260;10.988;2023-02-28T04:43:27;5.63;;;5.10;;
261;SDS011;114;48.260;10.988;2023-02-28T04:45:54;6.90;;;4.97;;
261;SDS011;114;48.260;10.988;2023-02-28T04:48:22;7.00;;;5.90;;
261;SDS011;114;48.260;10.988;2023-02-28T04:50:59;5.57;;;4.80;;
261;SDS011;114;48.260;10.988;2023-02-28T04:53:34;7.60;;;6.60;;
261;SDS011;114;48.260;10.988;2023-02-28T04:56:01;15.33;;;6.10;;
261;SDS011;114;48.260;10.988;2023-02-28T04:58:27;6.77;;;6.17;;
261;SDS011;114;48.260;10.988;2023-02-28T05:00:53;6.83;;;6.20;;
261;SDS011;114;48.260;10.988;2023-02-28T05:03:20;9.60;;;6.10;;
261;SDS011;114;48.260;10.988;2023-02-28T05:05:47;9.80;;;6.90;;
261;SDS011;114;48.260;10.988;2023-02-28T05:08:12;9.97;;;6.47;;
261;SDS011;114;48.260;10.988;2023-02-28T05:10:38;10.67;;;6.50;;
261;SDS011;114;48.260;10.988;2023-02-28T05:13:04;6.33;;;5.73;;
261;SDS011;114;48.260;10.988;2023-02-28T05:15:30;6.40;;;5.70;;
261;SDS011;114;48.260;10.988;2023-02-28T05:17:56;10.10;;;7.53;;
261;SDS011;114;48.260;10.988;2023-02-28T05:20:21;6.67;;;5.97;;
261;SDS011;114;48.260;10.988;2023-02-28T05:22:47;8.40;;;6.90;;
261;SDS011;114;48.260;10.988;2023-02-28T05:25:18;6.83;;;6.13;;
261;SDS011;114;48.260;10.988;2023-02-28T05:27:45;9.43;;;6.33;;
261;SDS011;114;48.260;10.988;2023-02-28T05:30:11;7.10;;;6.50;;
261;SDS011;114;48.260;10.988;2023-02-28T05:32:40;9.43;;;6.60;;
261;SDS011;114;48.260;10.988;2023-02-28T05:35:08;9.63;;;6.13;;
261;SDS011;114;48.260;10.988;2023-02-28T05:37:35;7.57;;;6.63;;
261;SDS011;114;48.260;10.988;2023-02-28T05:40:02;7.10;;;6.40;;
261;SDS011;114;48.260;10.988;2023-02-28T05:42:31;8.80;;;6.77;;
261;SDS011;114;48.260;10.988;2023-02-28T05:44:57;8.80;;;6.50;;
261;SDS011;114;48.260;10.988;2023-02-28T05:47:23;9.33;;;7.47;;
261;SDS011;114;48.260;10.988;2023-02-28T05:49:49;9.30;;;7.33;;
261;SDS011;114;48.260;10.988;2023-02-28T05:52:15;10.63;;;6.53;;
261;SDS011;114;48.260;10.988;2023-02-28T05:54:42;10.40;;;8.00;;
261;SDS011;114;48.260;10.988;2023-02-28T05:57:07;8.93;;;8.03;;
261;SDS011;114;48.260;10.988;2023-02-28T05:59:33;8.80;;;7.30;;
261;SDS011;114;48.260;10.988;2023-02-28T06:01:59;10.57;;;7.70;;
261;SDS011;114;48.260;10.988;2023-02-28T06:04:25;8.37;;;7.47;;
261;SDS011;114;48.260;10.988;2023-02-28T06:06:50;7.90;;;7.10;;
261;SDS011;114;48.260;10.988;2023-02-28T06:09:17;11.50;;;6.93;;
261;SDS011;114;48.260;10.988;2023-02-28T06:11:44;12.97;;;8.03;;
261;SDS011;114;48.260;10.988;2023-02-28T06:14:13;13.33;;;8.40;;
261;SDS011;114;48.260;10.988;2023-02-28T06:16:43;8.87;;;7.30;;
261;SDS011;114;48.260;10.988;2023-02-28T06:19:09;11.43;;;7.80;;
261;SDS011;114;48.260;10.988;2023-02-28T06:21:36;11.43;;;7.43;;
261;SDS011;114;48.260;10.988;2023-02-28T06:24:02;11.00;;;8.17;;
261;SDS011;114;48.260;10.988;2023-02-28T06:26:28;10.90;;;7.73;;
261;SDS011;114;48.260;10.988;2023-02-28T06:28:54;12.60;;;7.73;;
261;SDS011;114;48.260;10.988;2023-02-28T06:31:20;9.37;;;8.23;;
261;SDS011;114;48.260;10.988;2023-02-28T06:33:47;10.40;;;8.23;;
261;SDS011;114;48.260;10.988;2023-02-28T06:36:14;10.83;;;8.43;;
261;SDS011;114;48.260;10.988;2023-02-28T06:38:40;9.50;;;7.97;;
261;SDS011;114;48.260;10.988;2023-02-28T06:41:06;12.67;;;8.47;;
261;SDS011;114;48.260;10.988;2023-02-28T06:43:34;8.63;;;7.37;;
261;SDS011;114;48.260;10.988;2023-02-28T06:46:04;13.20;;;9.17;;
261;SDS011;114;48.260;10.988;2023-02-28T06:48:32;9.47;;;8.57;;
261;SDS011;114;48.260;10.988;2023-02-28T06:51:01;13.30;;;8.70;;
261;SDS011;114;48.260;10.988;2023-02-28T06:53:28;9.77;;;6.93;;
261;SDS011;114;48.260;10.988;2023-02-28T06:55:54;9.23;;;8.30;;
261;SDS011;114;48.260;10.988;2023-02-28T06:58:20;18.20;;;8.90;;
261;SDS011;114;48.260;10.988;2023-02-28T07:00:50;9.20;;;7.67;;
261;SDS011;114;48.260;10.988;2023-02-28T07:03:16;11.10;;;8.53;;
261;SDS011;114;48.260;10.988;2023-02-28T07:05:43;12.10;;;8.70;;
261;SDS011;114;48.260;10.988;2023-02-28T07:08:10;12.03;;;8.60;;
261;SDS011;114;48.260;10.988;2023-02-28T07:10:39;8.93;;;8.03;;
261;SDS011;114;48.260;10.988;2023-02-28T07:13:05;8.80;;;7.80;;
261;SDS011;114;48.260;10.988;2023-02-28T07:15:31;9.70;;;7.60;;
261;SDS011;114;48.260;10.988;2023-02-28T07:17:57;9.67;;;8.47;;
261;SDS011;114;48.260;10.988;2023-02-28T07:20:23;17.30;;;9.27;;
261;SDS011;114;48.260;10.988;2023-02-28T07:22:50;9.37;;;8.00;;
261;SDS011;114;48.260;10.988;2023-02-28T07:25:25;9.00;;;8.10;;
261;SDS011;114;48.260;10.988;2023-02-28T07:27:53;10.73;;;8.90;;
261;SDS011;114;48.260;10.988;2023-02-28T07:30:19;12.67;;;8.00;;
261;SDS011;114;48.260;10.988;2023-02-28T07:32:45;12.00;;;8.40;;
261;SDS011;114;48.260;10.988;2023-02-28T07:35:12;9.33;;;7.33;;
261;SDS011;114;48.260;10.988;2023-02-28T07:37:38;8.90;;;8.00;;
261;SDS011;114;48.260;10.988;2023-02-28T07:40:05;9.97;;;8.40;;
261;SDS011;114;48.260;10.988;2023-02-28T07:42:34;11.40;;;8.83;;
261;SDS011;114;48.260;10.988;2023-02-28T07:45:01;11.67;;;8.50;;
261;SDS011;114;48.260;10.988;2023-02-28T07:47:28;12.27;;;8.83;;
261;SDS011;114;48.260;10.988;2023-02-28T07:49:55;9.87;;;8.57;;
261;SDS011;114;48.260;10.988;2023-02-28T07:52:21;10.47;;;9.27;;
261;SDS011;114;48.260;10.988;2023-02-28T07:54:48;11.07;;;9.00;;
261;SDS011;114;48.260;10.988;2023-02-28T07:57:14;9.90;;;8.00;;
261;SDS011;114;48.260;10.988;2023-02-28T07:59:41;11.53;;;8.80;;
261;SDS011;114;48.260;10.988;2023-02-28T08:02:14;17.77;;;9.73;;
261;SDS011;114;48.260;10.988;2023-02-28T08:04:41;13.57;;;9.10;;
261;SDS011;114;48.260;10.988;2023-02-28T08:07:07;10.27;;;8.03;;
261;SDS011;114;48.260;10.988;2023-02-28T08:09:38;10.70;;;8.63;;
261;SDS011;114;48.260;10.988;2023-02-28T08:12:05;10.73;;;8.90;;
261;SDS011;114;48.260;10.988;2023-02-28T08:14:32;12.33;;;8.60;;
261;SDS011;114;48.260;10.988;2023-02-28T08:16:58;10.73;;;8.60;;
261;SDS011;114;48.260;10.988;2023-02-28T08:19:24;15.60;;;8.70;;
261;SDS011;114;48.260;10.988;2023-02-28T08:21:50;10.20;;;9.10;;
261;SDS011;114;48.260;10.988;2023-02-28T08:24:15;11.50;;;7.73;;
261;SDS011;114;48.260;10.988;2023-02-28T08:26:41;14.17;;;10.00;;
261;SDS011;114;48.260;10.988;2023-02-28T08:29:07;12.50;;;8.97;;
261;SDS011;114;48.260;10.988;2023-02-28T08:31:33;10.93;;;8.97;;
261;SDS011;114;48.260;10.988;2023-02-28T08:34:04;9.70;;;8.37;;
261;SDS011;114;48.260;10.988;2023-02-28T08:36:33;10.50;;;8.93;;
261;SDS011;114;48.260;10.988;2023-02-28T08:38:59;11.90;;;8.80;;
261;SDS011;114;48.260;10.988;2023-02-28T08:41:25;10.70;;;8.80;;
261;SDS011;114;48.260;10.988;2023-02-28T08:43:51;9.60;;;8.60;;
261;SDS011;114;48.260;10.988;2023-02-28T08:46:17;9.33;;;8.33;;
261;SDS011;114;48.260;10.988;2023-02-28T08:48:43;11.07;;;9.40;;
261;SDS011;114;48.260;10.988;2023-02-28T08:51:10;12.30;;;8.53;;
261;SDS011;114;48.260;10.988;2023-02-28T08:53:44;12.17;;;9.37;;
261;SDS011;114;48.260;10.988;2023-02-28T08:56:12;9.50;;;8.50;;
261;SDS011;114;48.260;10.988;2023-02-28T08:58:38;11.53;;;9.70;;
261;SDS011;114;48.260;10.988;2023-02-28T09:01:11;14.13;;;9.10;;
261;SDS011;114;48.260;10.988;2023-02-28T09:03:41;10.50;;;8.90;;
261;SDS011;114;48.260;10.988;2023-02-28T09:06:08;9.90;;;8.90;;
261;SDS011;114;48.260;10.988;2023-02-28T09:08:34;12.00;;;9.13;;
261;SDS011;114;48.260;10.988;2023-02-28T09:11:01;9.73;;;8.43;;
261;SDS011;114;48.260;10.988;2023-02-28T09:13:28;13.30;;;9.00;;
261;SDS011;114;48.260;10.988;2023-02-28T09:15:57;11.00;;;9.43;;
261;SDS011;114;48.260;10.988;2023-02-28T09:18:25;14.10;;;9.10;;
261;SDS011;114;48.260;10.988;2023-02-28T09:20:51;9.80;;;8.60;;
261;SDS011;114;48.260;10.988;2023-02-28T09:23:16;12.50;;;8.07;;
261;SDS011;114;48.260;10.988;2023-02-28T09:25:49;16.80;;;9.00;;
261;SDS011;114;48.260;10.988;2023-02-28T09:28:17;11.57;;;8.03;;
261;SDS011;114;48.260;10.988;2023-02-28T09:30:44;12.40;;;8.87;;
261;SDS011;114;48.260;10.988;2023-02-28T09:33:11;14.53;;;8.40;;
261;SDS011;114;48.260;10.988;2023-02-28T09:35:38;11.63;;;7.83;;
261;SDS011;114;48.260;10.988;2023-02-28T09:38:04;9.83;;;8.80;;
261;SDS011;114;48.260;10.988;2023-02-28T09:40:30;11.50;;;9.27;;
261;SDS011;114;48.260;10.988;2023-02-28T09:42:57;9.63;;;8.70;;
261;SDS011;114;48.260;10.988;2023-02-28T09:45:29;12.90;;;9.33;;
261;SDS011;114;48.260;10.988;2023-02-28T09:48:17;10.80;;;9.17;;
261;SDS011;114;48.260;10.988;2023-02-28T09:50:49;10.83;;;9.60;;
261;SDS011;114;48.260;10.988;2023-02-28T09:53:27;11.50;;;9.40;;
261;SDS011;114;48.260;10.988;2023-02-28T09:56:11;11.30;;;8.70;;
261;SDS011;114;48.260;10.988;2023-02-28T09:58:53;11.17;;;9.33;;
261;SDS011;114;48.260;10.988;2023-02-28T10:04:29;13.83;;;9.13;;
261;SDS011;114;48.260;10.988;2023-02-28T10:07:17;9.90;;;8.47;;
261;SDS011;114;48.260;10.988;2023-02-28T10:09:49;12.63;;;9.70;;
261;SDS011;114;48.260;10.988;2023-02-28T10:12:18;11.37;;;8.90;;
261;SDS011;114;48.260;10.988;2023-02-28T10:14:46;11.97;;;8.37;;
261;SDS011;114;48.260;10.988;2023-02-28T10:17:25;13.20;;;8.67;;
261;SDS011;114;48.260;10.988;2023-02-28T10:20:02;12.23;;;8.93;;
261;SDS011;114;48.260;10.988;2023-02-28T10:22:57;15.83;;;9.33;;
261;SDS011;114;48.260;10.988;2023-02-28T10:25:32;10.27;;;8.60;;
261;SDS011;114;48.260;10.988;2023-02-28T10:28:05;10.63;;;8.80;;
261;SDS011;114;48.260;10.988;2023-02-28T10:30:40;11.27;;;9.20;;
261;SDS011;114;48.260;10.988;2023-02-28T10:33:17;10.57;;;9.03;;
261;SDS011;114;48.260;10.988;2023-02-28T10:35:52;23.03;;;8.93;;
261;SDS011;114;48.260;10.988;2023-02-28T10:38:20;10.23;;;8.90;;
261;SDS011;114;48.260;10.988;2023-02-28T10:40:48;11.07;;;8.20;;
261;SDS011;114;48.260;10.988;2023-02-28T10:45:51;11.67;;;8.90;;
261;SDS011;114;48.260;10.988;2023-02-28T10:56:14;11.30;;;8.53;;
261;SDS011;114;48.260;10.988;2023-02-28T10:59:21;13.57;;;9.17;;
261;SDS011;114;48.260;10.988;2023-02-28T11:01:49;12.70;;;8.67;;
261;SDS011;114;48.260;10.988;2023-02-28T11:04:18;11.00;;;9.27;;
261;SDS011;114;48.260;10.988;2023-02-28T11:09:40;11.90;;;9.73;;
261;SDS011;114;48.260;10.988;2023-02-28T11:12:18;10.53;;;9.13;;
261;SDS011;114;48.260;10.988;2023-02-28T11:14:54;10.30;;;8.37;;
261;SDS011;114;48.260;10.988;2023-02-28T11:17:44;9.30;;;8.40;;
261;SDS011;114;48.260;10.988;2023-02-28T11:20:21;12.77;;;9.50;;
261;SDS011;114;48.260;10.988;2023-02-28T11:22:50;12.77;;;8.43;;
261;SDS011;114;48.260;10.988;2023-02-28T11:25:21;10.10;;;8.80;;
261;SDS011;114;48.260;10.988;2023-02-28T11:27:53;12.07;;;9.50;;
261;SDS011;114;48.260;10.988;2023-02-28T11:30:24;12.03;;;9.50;;
261;SDS011;114;48.260;10.988;2023-02-28T11:32:52;9.43;;;8.43;;
261;SDS011;114;48.260;10.988;2023-02-28T11:35:21;10.23;;;8.40;;
261;SDS011;114;48.260;10.988;2023-02-28T11:37:49;9.93;;;8.97;;
261;SDS011;114;48.260;10.988;2023-02-28T11:40:15;10.07;;;8.83;;
261;SDS011;114;48.260;10.988;2023-02-28T11:42:55;9.60;;;8.63;;
261;SDS011;114;48.260;10.988;2023-02-28T11:48:12;10.77;;;7.63;;
261;SDS011;114;48.260;10.988;2023-02-28T11:56:36;13.53;;;8.87;;
261;SDS011;114;48.260;10.988;2023-02-28T11:59:25;12.10;;;8.80;;
261;SDS011;114;48.260;10.988;2023-02-28T12:07:30;10.67;;;9.53;;
261;SDS011;114;48.260;10.988;2023-02-28T12:17:50;9.57;;;8.50;;
261;SDS011;114;48.260;10.988;2023-02-28T12:26:00;10.50;;;9.00;;
261;SDS011;114;48.260;10.988;2023-02-28T12:28:36;9.80;;;8.80;;
261;SDS011;114;48.260;10.988;2023-02-28T12:31:15;9.93;;;8.90;;
261;SDS011;114;48.260;10.988;2023-02-28T12:33:47;8.97;;;8.10;;
261;SDS011;114;48.260;10.988;2023-02-28T12:36:18;10.33;;;9.10;;
261;SDS011;114;48.260;10.988;2023-02-28T12:41:16;10.13;;;8.80;;
261;SDS011;114;48.260;10.988;2023-02-28T12:43:52;11.57;;;9.67;;
261;SDS011;114;48.260;10.988;2023-02-28T12:46:29;12.77;;;9.57;;
261;SDS011;114;48.260;10.988;2023-02-28T12:49:12;9.73;;;8.13;;
261;SDS011;114;48.260;10.988;2023-02-28T12:52:00;10.87;;;9.37;;
261;SDS011;114;48.260;10.988;2023-02-28T12:54:29;8.73;;;7.93;;
261;SDS011;114;48.260;10.988;2023-02-28T12:57:13;9.03;;;8.17;;
261;SDS011;114;48.260;10.988;2023-02-28T13:00:28;9.60;;;8.70;;
261;SDS011;114;48.260;10.988;2023-02-28T13:10:57;9.63;;;8.63;;
261;SDS011;114;48.260;10.988;2023-02-28T13:13:24;10.10;;;8.93;;
261;SDS011;114;48.260;10.988;2023-02-28T13:16:03;9.40;;;8.50;;
261;SDS011;114;48.260;10.988;2023-02-28T13:18:35;11.27;;;8.40;;
261;SDS011;114;48.260;10.988;2023-02-28T13:21:10;9.67;;;8.30;;
261;SDS011;114;48.260;10.988;2023-02-28T13:29:00;9.40;;;8.50;;
261;SDS011;114;48.260;10.988;2023-02-28T13:31:26;8.97;;;8.10;;
261;SDS011;114;48.260;10.988;2023-02-28T13:36:31;10.10;;;8.53;;
261;SDS011;114;48.260;10.988;2023-02-28T13:39:01;10.87;;;8.87;;
261;SDS011;114;48.260;10.988;2023-02-28T14:03:14;9.03;;;7.90;;
261;SDS011;114;48.260;10.988;2023-02-28T14:06:34;9.47;;;8.50;;
261;SDS011;114;48.260;10.988;2023-02-28T14:09:02;9.83;;;9.00;;
261;SDS011;114;48.260;10.988;2023-02-28T14:11:41;10.87;;;9.67;;
261;SDS011;114;48.260;10.988;2023-02-28T14:14:09;10.37;;;8.87;;
261;SDS011;114;48.260;10.988;2023-02-28T14:16:55;13.27;;;9.37;;
261;SDS011;114;48.260;10.988;2023-02-28T14:36:32;12.97;;;10.27;;
261;SDS011;114;48.260;10.988;2023-02-28T14:39:04;9.80;;;8.90;;
261;SDS011;114;48.260;10.988;2023-02-28T14:41:33;10.90;;;9.20;;
261;SDS011;114;48.260;10.988;2023-02-28T14:44:02;10.40;;;8.77;;
261;SDS011;114;48.260;10.988;2023-02-28T14:46:38;10.93;;;9.83;;
261;SDS011;114;48.260;10.988;2023-02-28T14:49:06;10.60;;;8.73;;
261;SDS011;114;48.260;10.988;2023-02-28T14:51:38;13.60;;;9.10;;
261;SDS011;114;48.260;10.988;2023-02-28T14:54:03;12.30;;;8.93;;
261;SDS011;114;48.260;10.988;2023-02-28T14:56:34;10.27;;;9.10;;
261;SDS011;114;48.260;10.988;2023-02-28T14:59:02;10.43;;;8.33;;
261;SDS011;114;48.260;10.988;2023-02-28T15:01:29;11.00;;;9.83;;
261;SDS011;114;48.260;10.988;2023-02-28T15:03:58;11.00;;;9.30;;
261;SDS011;114;48.260;10.988;2023-02-28T15:06:29;9.60;;;8.63;;
261;SDS011;114;48.260;10.988;2023-02-28T15:09:09;9.40;;;8.50;;
261;SDS011;114;48.260;10.988;2023-02-28T15:11:38;10.33;;;9.30;;
261;SDS011;114;48.260;10.988;2023-02-28T15:14:05;10.80;;;7.83;;
261;SDS011;114;48.260;10.988;2023-02-28T15:16:37;9.47;;;8.47;;
261;SDS011;114;48.260;10.988;2023-02-28T15:19:25;10.03;;;8.97;;
261;SDS011;114;48.260;10.988;2023-02-28T15:22:13;12.60;;;10.50;;
261;SDS011;114;48.260;10.988;2023-02-28T15:24:44;12.13;;;9.10;;
261;SDS011;114;48.260;10.988;2023-02-28T15:27:19;13.00;;;9.23;;
261;SDS011;114;48.260;10.988;2023-02-28T15:29:47;10.87;;;8.90;;
261;SDS011;114;48.260;10.988;2023-02-28T15:32:23;12.50;;;9.60;;
261;SDS011;114;48.260;10.988;2023-02-28T15:34:57;20.60;;;9.70;;
261;SDS011;114;48.260;10.988;2023-02-28T15:42:58;12.23;;;9.20;;
261;SDS011;114;48.260;10.988;2023-02-28T15:45:45;9.90;;;8.90;;
261;SDS011;114;48.260;10.988;2023-02-28T15:50:47;10.03;;;9.03;;
261;SDS011;114;48.260;10.988;2023-02-28T15:53:17;9.97;;;8.60;;
261;SDS011;114;48.260;10.988;2023-02-28T15:55:54;10.67;;;9.57;;
261;SDS011;114;48.260;10.988;2023-02-28T15:58:23;11.43;;;8.90;;
261;SDS011;114;48.260;10.988;2023-02-28T16:01:00;10.67;;;9.27;;
261;SDS011;114;48.260;10.988;2023-02-28T16:03:37;10.97;;;8.53;;
261;SDS011;114;48.260;10.988;2023-02-28T16:06:18;12.97;;;10.10;;
261;SDS011;114;48.260;10.988;2023-02-28T16:09:05;12.37;;;8.97;;
261;SDS011;114;48.260;10.988;2023-02-28T16:11:34;13.67;;;8.47;;
261;SDS011;114;48.260;10.988;2023-02-28T16:14:03;14.00;;;9.73;;
261;SDS011;114;48.260;10.988;2023-02-28T16:16:29;12.83;;;10.07;;
261;SDS011;114;48.260;10.988;2023-02-28T16:18:57;13.57;;;10.00;;
261;SDS011;114;48.260;10.988;2023-02-28T16:21:23;10.87;;;9.47;;
261;SDS011;114;48.260;10.988;2023-02-28T16:23:50;10.30;;;9.20;;
261;SDS011;114;48.260;10.988;2023-02-28T16:26:18;8.63;;;7.77;;
261;SDS011;114;48.260;10.988;2023-02-28T16:28:47;11.40;;;9.00;;
261;SDS011;114;48.260;10.988;2023-02-28T16:31:14;13.67;;;9.60;;
261;SDS011;114;48.260;10.988;2023-02-28T16:33:42;11.77;;;10.03;;
261;SDS011;114;48.260;10.988;2023-02-28T16:36:13;11.13;;;9.50;;
261;SDS011;114;48.260;10.988;2023-02-28T16:38:43;13.40;;;10.00;;
261;SDS011;114;48.260;10.988;2023-02-28T16:41:11;13.87;;;10.20;;
261;SDS011;114;48.260;10.988;2023-02-28T16:43:43;13.60;;;10.77;;
261;SDS011;114;48.260;10.988;2023-02-28T16:46:14;12.87;;;10.27;;
261;SDS011;114;48.260;10.988;2023-02-28T16:48:42;15.17;;;10.27;;
261;SDS011;114;48.260;10.988;2023-02-28T16:51:12;11.20;;;9.90;;
261;SDS011;114;48.260;10.988;2023-02-28T16:53:39;16.50;;;11.10;;
261;SDS011;114;48.260;10.988;2023-02-28T16:56:05;11.50;;;10.20;;
261;SDS011;114;48.260;10.988;2023-02-28T16:58:32;12.83;;;10.97;;
261;SDS011;114;48.260;10.988;2023-02-28T17:01:01;16.83;;;10.43;;
261;SDS011;114;48.260;10.988;2023-02-28T17:03:27;13.90;;;10.63;;
261;SDS011;114;48.260;10.988;2023-02-28T17:05:54;12.00;;;10.07;;
261;SDS011;114;48.260;10.988;2023-02-28T17:08:20;16.67;;;13.33;;
261;SDS011;114;48.260;10.988;2023-02-28T17:10:46;14.80;;;11.53;;
261;SDS011;114;48.260;10.988;2023-02-28T17:13:12;26.00;;;18.40;;
261;SDS011;114;48.260;10.988;2023-02-28T17:15:38;21.47;;;14.83;;
261;SDS011;114;48.260;10.988;2023-02-28T17:18:05;32.60;;;19.07;;
261;SDS011;114;48.260;10.988;2023-02-28T17:20:31;27.17;;;15.87;;
261;SDS011;114;48.260;10.988;2023-02-28T17:22:57;20.87;;;17.07;;
261;SDS011;114;48.260;10.988;2023-02-28T17:25:23;26.17;;;19.00;;
261;SDS011;114;48.260;10.988;2023-02-28T17:27:50;27.73;;;18.20;;
261;SDS011;114;48.260;10.988;2023-02-28T17:30:20;21.53;;;15.40;;
261;SDS011;114;48.260;10.988;2023-02-28T17:32:49;17.50;;;12.77;;
261;SDS011;114;48.260;10.988;2023-02-28T17:35:14;19.07;;;14.83;;
261;SDS011;114;48.260;10.988;2023-02-28T17:37:41;17.30;;;13.07;;
261;SDS011;114;48.260;10.988;2023-02-28T17:40:17;16.80;;;13.10;;
261;SDS011;114;48.260;10.988;2023-02-28T17:42:47;20.10;;;15.00;;
261;SDS011;114;48.260;10.988;2023-02-28T17:45:14;23.30;;;17.33;;
261;SDS011;114;48.260;10.988;2023-02-28T17:47:40;19.47;;;15.13;;
261;SDS011;114;48.260;10.988;2023-02-28T17:50:13;17.57;;;14.10;;
261;SDS011;114;48.260;10.988;2023-02-28T17:52:41;19.73;;;14.00;;
261;SDS011;114;48.260;10.988;2023-02-28T17:55:08;16.20;;;12.03;;
261;SDS011;114;48.260;10.988;2023-02-28T17:57:34;18.13;;;13.00;;
261;SDS011;114;48.260;10.988;2023-02-28T18:00:00;15.10;;;12.50;;
261;SDS011;114;48.260;10.988;2023-02-28T18:02:30;15.40;;;12.97;;
261;SDS011;114;48.260;10.988;2023-02-28T18:04:56;17.93;;;14.03;;
261;SDS011;114;48.260;10.988;2023-02-28T18:07:23;22.90;;;14.70;;
261;SDS011;114;48.260;10.988;2023-02-28T18:09:49;22.37;;;15.10;;